• Join FlightAware (Why Join?)
  • Login
  • US Flag 
09:54AM EDT


 

Airport Tracker/Info


-or-


 

Live Flight TrackerFlight Track Log ✈ SKW5550 ✈ 11-Oct-2013 ✈ KCOD - KDEN

Flight Track Log - Related Links

Times and Time Zones

All times are in EDT time to prevent confusion due to time zone crossing. See the SKW5550 flight status page for this flight to view local times or setup timezone preferences in your user account.

Time Position Orientation Groundspeed Altitude Reporting Facility
EDT Latitude Longitude Course Direction KTS MPH feet Rate Location/Type
09:32AM 44.5392 -108.9936 160° South 165 190 6,400  Level Salt Lake Center
09:33AM 44.3391 -108.8389 159° South  Level Estimated
09:33AM 44.5900 -108.9736 16° North 199 229 8,300  Level Salt Lake Center
09:34AM 44.2485 -108.7469 157° South  Level Estimated
09:34AM 44.6219 -108.9083 55° Northeast 238 274 11,200  Level Salt Lake Center
09:35AM 44.1452 -108.6864 157° South  Level FlightAware Approximate
09:35AM 44.5508 -108.8817 165° South 283 326 12,800  Level Salt Lake Center
09:36AM 44.0547 -108.5943 157° South  Level Estimated
09:36AM 44.4589 -108.8733 176° South 326 375 14,500  Level Salt Lake Center
09:37AM 43.9494 -108.5412 160° South  Level FlightAware Approximate
09:37AM 44.3667 -108.8192 157° South 358 412 16,600  Level Salt Lake Center
09:38AM 44.2750 -108.7669 158° South 360 414 18,900 1,920 Climbing Salt Lake Center
09:39AM 44.1861 -108.7011 152° Southeast 362 417 20,600 1,680 Climbing Salt Lake Center
09:40AM 44.0831 -108.6000 145° Southeast 375 432 22,400 1,500 Climbing Salt Lake Center
09:41AM 43.9961 -108.5181 146° Southeast 380 437 23,700 1,320 Climbing Salt Lake Center
09:42AM 43.9069 -108.4356 146° Southeast 386 444 25,100 1,140 Climbing Salt Lake Center
09:43AM 43.8183 -108.3533 146° Southeast 385 443 26,100 1,080 Climbing Salt Lake Center
09:44AM 43.7281 -108.2681 146° Southeast 392 451 27,300 960 Climbing Salt Lake Center
09:45AM 43.6361 -108.1817 146° Southeast 399 459 28,100 780 Climbing Salt Lake Center
09:46AM 43.5428 -108.0978 147° Southeast 401 461 28,900 840 Climbing Salt Lake Center
09:47AM 43.4506 -108.0106 146° Southeast 403 464 29,900 1,020 Climbing Salt Lake Center
09:48AM 43.3592 -107.9272 146° Southeast 397 457 31,000 540 Climbing Salt Lake Center
09:49AM 43.2472 -107.8261 147° Southeast 402 463 31,000  Level Salt Lake Center
09:50AM 43.1517 -107.7375 146° Southeast 412 474 31,000  Level Salt Lake Center
09:51AM 43.0561 -107.6500 146° Southeast 416 479 31,000  Level Salt Lake Center
09:52AM 42.9619 -107.5611 145° Southeast 414 476 31,000  Level Salt Lake Center
09:53AM 42.8647 -107.4722 146° Southeast 407 468 31,000  Level Salt Lake Center
09:54AM 42.7758 -107.3897 146° Southeast 405 466 31,000  Level Salt Lake Center
09:55AM 42.6728 -107.2950 146° Southeast 403 464 31,000  Level Denver Center
09:56AM 42.5825 -107.2106 145° Southeast 406 467 31,000  Level Denver Center
09:57AM 42.4778 -107.1133 146° Southeast 409 471 31,000  Level Denver Center
09:58AM 42.3875 -107.0300 146° Southeast 408 470 31,000  Level Denver Center
09:59AM 42.2967 -106.9464 146° Southeast 411 473 31,000  Level Denver Center
10:00AM 42.1900 -106.8483 146° Southeast 413 475 31,000  Level Denver Center
10:01AM 42.0997 -106.7669 146° Southeast 409 471 31,000  Level Denver Center
10:02AM 42.0069 -106.6831 146° Southeast 415 478 31,000  Level Denver Center
10:03AM 41.9011 -106.5864 146° Southeast 413 475 31,000  Level Denver Center
10:04AM 41.8111 -106.5058 146° Southeast 416 479 31,000  Level Denver Center
10:05AM 41.7064 -106.4117 146° Southeast 409 471 31,000  Level Denver Center
10:06AM 41.6150 -106.3289 146° Southeast 413 475 31,000 -420 Level Denver Center
10:07AM 41.5058 -106.2331 147° Southeast 419 482 30,200 -1,080 Descending Denver Center
10:08AM 41.4106 -106.1481 146° Southeast 429 494 28,800 -1,140 Descending Denver Center
10:09AM 41.3150 -106.0636 146° Southeast 431 496 27,900 -840 Descending Denver Center
10:10AM 41.2072 -105.9658 146° Southeast 424 488 27,200 -480 Descending Denver Center
10:11AM 41.1153 -105.8875 147° Southeast 414 476 27,000 -120 Descending Denver Center
10:12AM 41.0111 -105.7947 146° Southeast 413 475 27,000  Level Denver Center
10:13AM 40.9158 -105.7142 147° Southeast 408 470 27,000  Level Denver Center
10:15AM 40.8214 -105.6297 146° Southeast 410 472 27,000 -60 Level Denver Center
10:16AM 40.7242 -105.5461 147° Southeast 415 478 26,900 -1,020 Descending Denver Center
10:17AM 40.6308 -105.4636 146° Southeast 408 470 25,000 -1,800 Descending Denver Center
10:18AM 40.5622 -105.3636 132° Southeast 376 433 23,200 -1,920 Descending Denver Center
10:19AM 40.4903 -105.2378 127° Southeast 360 414 21,100 -1,860 Descending Denver Center
10:20AM 40.4056 -105.1678 148° Southeast 363 418 19,500 -1,620 Descending Denver Center
10:21AM 40.3297 -105.0850 140° Southeast 357 411 17,800 -1,620 Descending Denver Center
10:22AM 40.2472 -104.9989 141° Southeast 354 407 16,200 -1,560 Descending Denver Center
10:23AM 40.1692 -104.9147 141° Southeast 363 418 14,700 -1,500 Descending Denver Center
10:24AM 40.0925 -104.8344 141° Southeast 355 409 13,200 -840 Descending Denver Center
10:25AM 40.0128 -104.7494 141° Southeast 346 398 13,000 -420 Descending Denver Center
10:26AM 39.9539 -104.6744 136° Southeast 299 344 12,400 -1,020 Descending Denver Center
10:27AM 39.9500 -104.6000 94° East 270 311 11,300 -840 Descending Denver TRACON
10:28AM 39.9500 -104.5000 90° East 247 284 11,000 -660 Descending Denver TRACON
10:29AM 39.9500 -104.4167 90° East 236 272 10,100 -1,260 Descending Denver TRACON
10:29AM 39.9500 -104.3500 90° East 244 281 8,700 -1,440 Descending Denver TRACON
10:30AM 39.9261 -104.3111 129° Southeast 251 289 8,100 -480 Descending Denver Center
10:31AM 39.8675 -104.3225 188° South 231 266 8,000 -60 Descending Denver Center
10:32AM 39.8736 -104.3967 276° West 215 247 8,000 -360 Level Denver Center
10:33AM 39.8761 -104.4811 272° West 210 242 7,300 -780 Descending Denver Center
10:34AM 39.8833 -104.5167 285° West 179 206 6,800 -840 Descending Denver TRACON
10:35AM 39.8833 -104.5833 270° West 154 177 6,000 -600 Descending Denver TRACON
10:36AM 39.8769 -104.6433 262° West 135 155 5,300 -480 Descending Denver Center